sensor_id;sensor_type;location;lat;lon;timestamp;temperature;humidity
9776;DHT22;4927;52.472;13.108;2023-04-01T00:00:12;9.00;99.90
9776;DHT22;4927;52.472;13.108;2023-04-01T00:01:14;9.00;99.90
9776;DHT22;4927;52.472;13.108;2023-04-01T00:02:16;9.00;99.90
9776;DHT22;4927;52.472;13.108;2023-04-01T00:03:24;9.00;99.90
9776;DHT22;4927;52.472;13.108;2023-04-01T00:04:27;9.00;99.90
9776;DHT22;4927;52.472;13.108;2023-04-01T00:05:29;9.00;99.90
9776;DHT22;4927;52.472;13.108;2023-04-01T00:06:32;9.00;99.90
9776;DHT22;4927;52.472;13.108;2023-04-01T00:07:34;9.00;99.90
9776;DHT22;4927;52.472;13.108;2023-04-01T00:08:35;9.00;99.90
9776;DHT22;4927;52.472;13.108;2023-04-01T00:09:37;9.00;99.90
9776;DHT22;4927;52.472;13.108;2023-04-01T00:10:39;9.00;99.90
9776;DHT22;4927;52.472;13.108;2023-04-01T00:11:41;9.00;99.90
9776;DHT22;4927;52.472;13.108;2023-04-01T00:12:43;9.00;99.90
9776;DHT22;4927;52.472;13.108;2023-04-01T00:13:45;9.00;99.90
9776;DHT22;4927;52.472;13.108;2023-04-01T00:14:46;9.00;99.90
9776;DHT22;4927;52.472;13.108;2023-04-01T00:15:48;9.00;99.90
9776;DHT22;4927;52.472;13.108;2023-04-01T00:16:50;9.00;99.90
9776;DHT22;4927;52.472;13.108;2023-04-01T00:17:51;9.00;99.90
9776;DHT22;4927;52.472;13.108;2023-04-01T00:18:54;9.00;99.90
9776;DHT22;4927;52.472;13.108;2023-04-01T00:19:56;9.00;99.90
9776;DHT22;4927;52.472;13.108;2023-04-01T00:20:58;9.00;99.90
9776;DHT22;4927;52.472;13.108;2023-04-01T00:22:07;9.00;99.90
9776;DHT22;4927;52.472;13.108;2023-04-01T00:23:08;9.00;99.90
9776;DHT22;4927;52.472;13.108;2023-04-01T00:24:10;9.00;99.90
9776;DHT22;4927;52.472;13.108;2023-04-01T00:25:12;9.00;99.90
9776;DHT22;4927;52.472;13.108;2023-04-01T00:26:14;9.00;99.90
9776;DHT22;4927;52.472;13.108;2023-04-01T00:27:15;9.00;99.90
9776;DHT22;4927;52.472;13.108;2023-04-01T00:28:17;9.00;99.90
9776;DHT22;4927;52.472;13.108;2023-04-01T00:29:18;9.00;99.90
9776;DHT22;4927;52.472;13.108;2023-04-01T00:30:20;9.00;99.90
9776;DHT22;4927;52.472;13.108;2023-04-01T00:31:24;9.00;99.90
9776;DHT22;4927;52.472;13.108;2023-04-01T00:32:24;9.00;99.90
9776;DHT22;4927;52.472;13.108;2023-04-01T00:33:26;9.00;99.90
9776;DHT22;4927;52.472;13.108;2023-04-01T00:34:28;9.00;99.90
9776;DHT22;4927;52.472;13.108;2023-04-01T00:35:30;9.00;99.90
9776;DHT22;4927;52.472;13.108;2023-04-01T00:36:32;9.00;99.90
9776;DHT22;4927;52.472;13.108;2023-04-01T00:37:35;9.00;99.90
9776;DHT22;4927;52.472;13.108;2023-04-01T00:38:36;8.90;99.90
9776;DHT22;4927;52.472;13.108;2023-04-01T00:39:38;9.00;99.90
9776;DHT22;4927;52.472;13.108;2023-04-01T00:40:41;9.00;99.90
9776;DHT22;4927;52.472;13.108;2023-04-01T00:41:41;9.00;99.90
9776;DHT22;4927;52.472;13.108;2023-04-01T00:42:43;9.00;99.90
9776;DHT22;4927;52.472;13.108;2023-04-01T00:43:46;9.00;99.90
9776;DHT22;4927;52.472;13.108;2023-04-01T00:44:51;9.00;99.90
9776;DHT22;4927;52.472;13.108;2023-04-01T00:45:50;9.00;99.90
9776;DHT22;4927;52.472;13.108;2023-04-01T00:46:51;9.00;99.90
9776;DHT22;4927;52.472;13.108;2023-04-01T00:47:54;9.00;99.90
9776;DHT22;4927;52.472;13.108;2023-04-01T00:48:55;9.00;99.90
9776;DHT22;4927;52.472;13.108;2023-04-01T00:49:57;9.00;99.90
9776;DHT22;4927;52.472;13.108;2023-04-01T00:51:11;9.00;99.90
9776;DHT22;4927;52.472;13.108;2023-04-01T00:52:20;9.00;99.90
9776;DHT22;4927;52.472;13.108;2023-04-01T00:53:21;9.00;99.90
9776;DHT22;4927;52.472;13.108;2023-04-01T00:54:24;8.90;99.90
9776;DHT22;4927;52.472;13.108;2023-04-01T00:55:24;9.00;99.90
9776;DHT22;4927;52.472;13.108;2023-04-01T00:56:29;8.90;99.90
9776;DHT22;4927;52.472;13.108;2023-04-01T00:57:31;8.90;99.90
9776;DHT22;4927;52.472;13.108;2023-04-01T00:58:34;9.00;99.90
9776;DHT22;4927;52.472;13.108;2023-04-01T00:59:37;8.90;99.90
9776;DHT22;4927;52.472;13.108;2023-04-01T01:00:37;8.90;99.90
9776;DHT22;4927;52.472;13.108;2023-04-01T01:01:39;8.90;99.90
9776;DHT22;4927;52.472;13.108;2023-04-01T01:02:42;9.00;99.90
9776;DHT22;4927;52.472;13.108;2023-04-01T01:03:43;8.90;99.90
9776;DHT22;4927;52.472;13.108;2023-04-01T01:04:45;8.90;99.90
9776;DHT22;4927;52.472;13.108;2023-04-01T01:06:22;8.90;99.90
9776;DHT22;4927;52.472;13.108;2023-04-01T01:07:41;8.90;99.90
9776;DHT22;4927;52.472;13.108;2023-04-01T01:09:04;9.00;99.90
9776;DHT22;4927;52.472;13.108;2023-04-01T01:10:15;8.90;99.90
9776;DHT22;4927;52.472;13.108;2023-04-01T01:11:29;8.90;99.90
9776;DHT22;4927;52.472;13.108;2023-04-01T01:12:34;8.90;99.90
9776;DHT22;4927;52.472;13.108;2023-04-01T01:13:34;8.90;99.90
9776;DHT22;4927;52.472;13.108;2023-04-01T01:14:45;8.90;99.90
9776;DHT22;4927;52.472;13.108;2023-04-01T01:16:06;8.90;99.90
9776;DHT22;4927;52.472;13.108;2023-04-01T01:17:26;8.90;99.90
9776;DHT22;4927;52.472;13.108;2023-04-01T01:18:35;8.90;99.90
9776;DHT22;4927;52.472;13.108;2023-04-01T01:19:47;8.90;99.90
9776;DHT22;4927;52.472;13.108;2023-04-01T01:20:58;8.90;99.90
9776;DHT22;4927;52.472;13.108;2023-04-01T01:22:33;8.90;99.90
9776;DHT22;4927;52.472;13.108;2023-04-01T01:25:00;8.90;99.90
9776;DHT22;4927;52.472;13.108;2023-04-01T01:28:14;8.90;99.90
9776;DHT22;4927;52.472;13.108;2023-04-01T01:30:54;8.80;99.90
9776;DHT22;4927;52.472;13.108;2023-04-01T01:32:04;8.90;99.90
9776;DHT22;4927;52.472;13.108;2023-04-01T01:33:30;8.90;99.90
9776;DHT22;4927;52.472;13.108;2023-04-01T01:34:45;8.80;99.90
9776;DHT22;4927;52.472;13.108;2023-04-01T01:35:49;8.80;99.90
9776;DHT22;4927;52.472;13.108;2023-04-01T01:36:55;8.80;99.90
9776;DHT22;4927;52.472;13.108;2023-04-01T01:37:59;8.80;99.90
9776;DHT22;4927;52.472;13.108;2023-04-01T01:39:00;8.90;99.90
9776;DHT22;4927;52.472;13.108;2023-04-01T01:40:03;8.80;99.90
9776;DHT22;4927;52.472;13.108;2023-04-01T01:41:04;8.80;99.90
9776;DHT22;4927;52.472;13.108;2023-04-01T01:42:06;8.80;99.90
9776;DHT22;4927;52.472;13.108;2023-04-01T01:43:08;8.80;99.90
9776;DHT22;4927;52.472;13.108;2023-04-01T01:44:08;8.80;99.90
9776;DHT22;4927;52.472;13.108;2023-04-01T01:45:10;8.80;99.90
9776;DHT22;4927;52.472;13.108;2023-04-01T01:46:13;8.80;99.90
9776;DHT22;4927;52.472;13.108;2023-04-01T01:47:13;8.80;99.90
9776;DHT22;4927;52.472;13.108;2023-04-01T01:48:15;8.80;99.90
9776;DHT22;4927;52.472;13.108;2023-04-01T01:49:17;8.80;99.90
9776;DHT22;4927;52.472;13.108;2023-04-01T01:50:19;8.80;99.90
9776;DHT22;4927;52.472;13.108;2023-04-01T01:51:22;8.80;99.90
9776;DHT22;4927;52.472;13.108;2023-04-01T01:52:26;8.80;99.90
9776;DHT22;4927;52.472;13.108;2023-04-01T01:53:26;8.80;99.90
9776;DHT22;4927;52.472;13.108;2023-04-01T01:54:27;8.80;99.90
9776;DHT22;4927;52.472;13.108;2023-04-01T01:55:40;8.80;99.90
9776;DHT22;4927;52.472;13.108;2023-04-01T01:56:41;8.80;99.90
9776;DHT22;4927;52.472;13.108;2023-04-01T01:57:42;8.80;99.90
9776;DHT22;4927;52.472;13.108;2023-04-01T01:58:45;8.80;99.90
9776;DHT22;4927;52.472;13.108;2023-04-01T01:59:45;8.80;99.90
9776;DHT22;4927;52.472;13.108;2023-04-01T02:00:50;8.80;99.90
9776;DHT22;4927;52.472;13.108;2023-04-01T02:01:50;8.80;99.90
9776;DHT22;4927;52.472;13.108;2023-04-01T02:02:52;8.80;99.90
9776;DHT22;4927;52.472;13.108;2023-04-01T02:03:54;8.80;99.90
9776;DHT22;4927;52.472;13.108;2023-04-01T02:04:56;8.80;99.90
9776;DHT22;4927;52.472;13.108;2023-04-01T02:05:59;8.80;99.90
9776;DHT22;4927;52.472;13.108;2023-04-01T02:07:02;8.80;99.90
9776;DHT22;4927;52.472;13.108;2023-04-01T02:08:06;8.80;99.90
9776;DHT22;4927;52.472;13.108;2023-04-01T02:09:10;8.80;99.90
9776;DHT22;4927;52.472;13.108;2023-04-01T02:10:11;8.80;99.90
9776;DHT22;4927;52.472;13.108;2023-04-01T02:11:13;8.70;99.90
9776;DHT22;4927;52.472;13.108;2023-04-01T02:12:15;8.70;99.90
9776;DHT22;4927;52.472;13.108;2023-04-01T02:13:18;8.70;99.90
9776;DHT22;4927;52.472;13.108;2023-04-01T02:14:23;8.70;99.90
9776;DHT22;4927;52.472;13.108;2023-04-01T02:15:25;8.70;99.90
9776;DHT22;4927;52.472;13.108;2023-04-01T02:16:28;8.70;99.90
9776;DHT22;4927;52.472;13.108;2023-04-01T02:17:30;8.70;99.90
9776;DHT22;4927;52.472;13.108;2023-04-01T02:18:31;8.70;99.90
9776;DHT22;4927;52.472;13.108;2023-04-01T02:19:43;8.70;99.90
9776;DHT22;4927;52.472;13.108;2023-04-01T02:20:45;8.70;99.90
9776;DHT22;4927;52.472;13.108;2023-04-01T02:21:49;8.70;99.90
9776;DHT22;4927;52.472;13.108;2023-04-01T02:22:53;8.70;99.90
9776;DHT22;4927;52.472;13.108;2023-04-01T02:23:54;8.70;99.90
9776;DHT22;4927;52.472;13.108;2023-04-01T02:24:58;8.70;99.90
9776;DHT22;4927;52.472;13.108;2023-04-01T02:26:00;8.70;99.90
9776;DHT22;4927;52.472;13.108;2023-04-01T02:27:02;8.70;99.90
9776;DHT22;4927;52.472;13.108;2023-04-01T02:28:04;8.70;99.90
9776;DHT22;4927;52.472;13.108;2023-04-01T02:29:06;8.70;99.90
9776;DHT22;4927;52.472;13.108;2023-04-01T02:30:08;8.60;99.90
9776;DHT22;4927;52.472;13.108;2023-04-01T02:31:11;8.70;99.90
9776;DHT22;4927;52.472;13.108;2023-04-01T02:32:12;8.60;99.90
9776;DHT22;4927;52.472;13.108;2023-04-01T02:33:15;8.60;99.90
9776;DHT22;4927;52.472;13.108;2023-04-01T02:34:18;8.70;99.90
9776;DHT22;4927;52.472;13.108;2023-04-01T02:35:20;8.60;99.90
9776;DHT22;4927;52.472;13.108;2023-04-01T02:36:22;8.70;99.90
9776;DHT22;4927;52.472;13.108;2023-04-01T02:37:25;8.60;99.90
9776;DHT22;4927;52.472;13.108;2023-04-01T02:38:26;8.60;99.90
9776;DHT22;4927;52.472;13.108;2023-04-01T02:39:28;8.60;99.90
9776;DHT22;4927;52.472;13.108;2023-04-01T02:40:29;8.60;99.90
9776;DHT22;4927;52.472;13.108;2023-04-01T02:41:31;8.60;99.90
9776;DHT22;4927;52.472;13.108;2023-04-01T02:42:33;8.60;99.90
9776;DHT22;4927;52.472;13.108;2023-04-01T02:43:35;8.60;99.90
9776;DHT22;4927;52.472;13.108;2023-04-01T02:44:37;8.60;99.90
9776;DHT22;4927;52.472;13.108;2023-04-01T02:45:40;8.60;99.90
9776;DHT22;4927;52.472;13.108;2023-04-01T02:46:42;8.60;99.90
9776;DHT22;4927;52.472;13.108;2023-04-01T02:47:44;8.60;99.90
9776;DHT22;4927;52.472;13.108;2023-04-01T02:48:45;8.60;99.90
9776;DHT22;4927;52.472;13.108;2023-04-01T02:49:48;8.60;99.90
9776;DHT22;4927;52.472;13.108;2023-04-01T02:50:50;8.60;99.90
9776;DHT22;4927;52.472;13.108;2023-04-01T02:51:52;8.60;99.90
9776;DHT22;4927;52.472;13.108;2023-04-01T02:52:53;8.60;99.90
9776;DHT22;4927;52.472;13.108;2023-04-01T02:53:56;8.60;99.90
9776;DHT22;4927;52.472;13.108;2023-04-01T02:54:58;8.60;99.90
9776;DHT22;4927;52.472;13.108;2023-04-01T02:55:59;8.60;99.90
9776;DHT22;4927;52.472;13.108;2023-04-01T02:57:02;8.60;99.90
9776;DHT22;4927;52.472;13.108;2023-04-01T02:58:04;8.60;99.90
9776;DHT22;4927;52.472;13.108;2023-04-01T02:59:06;8.60;99.90
9776;DHT22;4927;52.472;13.108;2023-04-01T03:00:09;8.60;99.90
9776;DHT22;4927;52.472;13.108;2023-04-01T03:01:13;8.60;99.90
9776;DHT22;4927;52.472;13.108;2023-04-01T03:02:15;8.60;99.90
9776;DHT22;4927;52.472;13.108;2023-04-01T03:03:17;8.60;99.90
9776;DHT22;4927;52.472;13.108;2023-04-01T03:04:19;8.60;99.90
9776;DHT22;4927;52.472;13.108;2023-04-01T03:05:22;8.60;99.90
9776;DHT22;4927;52.472;13.108;2023-04-01T03:06:23;8.60;99.90
9776;DHT22;4927;52.472;13.108;2023-04-01T03:07:25;8.60;99.90
9776;DHT22;4927;52.472;13.108;2023-04-01T03:08:26;8.60;99.90
9776;DHT22;4927;52.472;13.108;2023-04-01T03:09:28;8.60;99.90
9776;DHT22;4927;52.472;13.108;2023-04-01T03:10:30;8.60;99.90
9776;DHT22;4927;52.472;13.108;2023-04-01T03:11:32;8.60;99.90
9776;DHT22;4927;52.472;13.108;2023-04-01T03:12:34;8.60;99.90
9776;DHT22;4927;52.472;13.108;2023-04-01T03:13:37;8.60;99.90
9776;DHT22;4927;52.472;13.108;2023-04-01T03:14:38;8.60;99.90
9776;DHT22;4927;52.472;13.108;2023-04-01T03:15:40;8.60;99.90
9776;DHT22;4927;52.472;13.108;2023-04-01T03:16:42;8.60;99.90
9776;DHT22;4927;52.472;13.108;2023-04-01T03:17:45;8.60;99.90
9776;DHT22;4927;52.472;13.108;2023-04-01T03:18:46;8.60;99.90
9776;DHT22;4927;52.472;13.108;2023-04-01T03:19:48;8.60;99.90
9776;DHT22;4927;52.472;13.108;2023-04-01T03:20:49;8.60;99.90
9776;DHT22;4927;52.472;13.108;2023-04-01T03:21:51;8.60;99.90
9776;DHT22;4927;52.472;13.108;2023-04-01T03:22:53;8.60;99.90
9776;DHT22;4927;52.472;13.108;2023-04-01T03:23:54;8.60;99.90
9776;DHT22;4927;52.472;13.108;2023-04-01T03:24:56;8.60;99.90
9776;DHT22;4927;52.472;13.108;2023-04-01T03:25:58;8.60;99.90
9776;DHT22;4927;52.472;13.108;2023-04-01T03:27:00;8.60;99.90
9776;DHT22;4927;52.472;13.108;2023-04-01T03:28:02;8.60;99.90
9776;DHT22;4927;52.472;13.108;2023-04-01T03:29:03;8.60;99.90
9776;DHT22;4927;52.472;13.108;2023-04-01T03:30:06;8.60;99.90
9776;DHT22;4927;52.472;13.108;2023-04-01T03:31:08;8.60;99.90
9776;DHT22;4927;52.472;13.108;2023-04-01T03:32:10;8.60;99.90
9776;DHT22;4927;52.472;13.108;2023-04-01T03:33:12;8.60;99.90
9776;DHT22;4927;52.472;13.108;2023-04-01T03:34:14;8.60;99.90
9776;DHT22;4927;52.472;13.108;2023-04-01T03:35:15;8.60;99.90
9776;DHT22;4927;52.472;13.108;2023-04-01T03:36:17;8.60;99.90
9776;DHT22;4927;52.472;13.108;2023-04-01T03:37:19;8.60;99.90
9776;DHT22;4927;52.472;13.108;2023-04-01T03:38:20;8.60;99.90
9776;DHT22;4927;52.472;13.108;2023-04-01T03:39:22;8.60;99.90
9776;DHT22;4927;52.472;13.108;2023-04-01T03:40:24;8.60;99.90
9776;DHT22;4927;52.472;13.108;2023-04-01T03:41:26;8.60;99.90
9776;DHT22;4927;52.472;13.108;2023-04-01T03:42:29;8.60;99.90
9776;DHT22;4927;52.472;13.108;2023-04-01T03:43:30;8.60;99.90
9776;DHT22;4927;52.472;13.108;2023-04-01T03:44:32;8.60;99.90
9776;DHT22;4927;52.472;13.108;2023-04-01T03:45:34;8.60;99.90
9776;DHT22;4927;52.472;13.108;2023-04-01T03:46:36;8.60;99.90
9776;DHT22;4927;52.472;13.108;2023-04-01T03:47:38;8.60;99.90
9776;DHT22;4927;52.472;13.108;2023-04-01T03:48:39;8.60;99.90
9776;DHT22;4927;52.472;13.108;2023-04-01T03:49:41;8.60;99.90
9776;DHT22;4927;52.472;13.108;2023-04-01T03:50:43;8.70;99.90
9776;DHT22;4927;52.472;13.108;2023-04-01T03:51:45;8.60;99.90
9776;DHT22;4927;52.472;13.108;2023-04-01T03:52:47;8.70;99.90
9776;DHT22;4927;52.472;13.108;2023-04-01T03:53:49;8.70;99.90
9776;DHT22;4927;52.472;13.108;2023-04-01T03:54:51;8.70;99.90
9776;DHT22;4927;52.472;13.108;2023-04-01T03:55:53;8.70;99.90
9776;DHT22;4927;52.472;13.108;2023-04-01T03:56:55;8.70;99.90
9776;DHT22;4927;52.472;13.108;2023-04-01T03:57:57;8.70;99.90
9776;DHT22;4927;52.472;13.108;2023-04-01T03:59:01;8.70;99.90
9776;DHT22;4927;52.472;13.108;2023-04-01T04:00:01;8.70;99.90
9776;DHT22;4927;52.472;13.108;2023-04-01T04:01:03;8.70;99.90
9776;DHT22;4927;52.472;13.108;2023-04-01T04:02:04;8.70;99.90
9776;DHT22;4927;52.472;13.108;2023-04-01T04:03:07;8.70;99.90
9776;DHT22;4927;52.472;13.108;2023-04-01T04:04:10;8.70;99.90
9776;DHT22;4927;52.472;13.108;2023-04-01T04:05:12;8.70;99.90
9776;DHT22;4927;52.472;13.108;2023-04-01T04:06:14;8.70;99.90
9776;DHT22;4927;52.472;13.108;2023-04-01T04:07:16;8.70;99.90
9776;DHT22;4927;52.472;13.108;2023-04-01T04:08:18;8.70;99.90
9776;DHT22;4927;52.472;13.108;2023-04-01T04:09:20;8.70;99.90
9776;DHT22;4927;52.472;13.108;2023-04-01T04:10:22;8.70;99.90
9776;DHT22;4927;52.472;13.108;2023-04-01T04:11:24;8.70;99.90
9776;DHT22;4927;52.472;13.108;2023-04-01T04:12:26;8.70;99.90
9776;DHT22;4927;52.472;13.108;2023-04-01T04:13:28;8.70;99.90
9776;DHT22;4927;52.472;13.108;2023-04-01T04:14:30;8.70;99.90
9776;DHT22;4927;52.472;13.108;2023-04-01T04:15:32;8.70;99.90
9776;DHT22;4927;52.472;13.108;2023-04-01T04:16:35;8.70;99.90
9776;DHT22;4927;52.472;13.108;2023-04-01T04:17:37;8.70;99.90
9776;DHT22;4927;52.472;13.108;2023-04-01T04:18:39;8.70;99.90
9776;DHT22;4927;52.472;13.108;2023-04-01T04:19:41;8.70;99.90
9776;DHT22;4927;52.472;13.108;2023-04-01T04:20:43;8.70;99.90
9776;DHT22;4927;52.472;13.108;2023-04-01T04:21:44;8.70;99.90
9776;DHT22;4927;52.472;13.108;2023-04-01T04:22:46;8.70;99.90
9776;DHT22;4927;52.472;13.108;2023-04-01T04:23:48;8.70;99.90
9776;DHT22;4927;52.472;13.108;2023-04-01T04:24:50;8.70;99.90
9776;DHT22;4927;52.472;13.108;2023-04-01T04:26:08;8.70;99.90
9776;DHT22;4927;52.472;13.108;2023-04-01T04:27:09;8.70;99.90
9776;DHT22;4927;52.472;13.108;2023-04-01T04:28:10;8.70;99.90
9776;DHT22;4927;52.472;13.108;2023-04-01T04:29:13;8.70;99.90
9776;DHT22;4927;52.472;13.108;2023-04-01T04:30:15;8.70;99.90
9776;DHT22;4927;52.472;13.108;2023-04-01T04:31:19;8.70;99.90
9776;DHT22;4927;52.472;13.108;2023-04-01T04:32:21;8.70;99.90
9776;DHT22;4927;52.472;13.108;2023-04-01T04:33:22;8.70;99.90
9776;DHT22;4927;52.472;13.108;2023-04-01T04:34:24;8.70;99.90
9776;DHT22;4927;52.472;13.108;2023-04-01T04:35:26;8.70;99.90
9776;DHT22;4927;52.472;13.108;2023-04-01T04:36:28;8.70;99.90
9776;DHT22;4927;52.472;13.108;2023-04-01T04:37:37;8.70;99.90
9776;DHT22;4927;52.472;13.108;2023-04-01T04:38:39;8.70;99.90
9776;DHT22;4927;52.472;13.108;2023-04-01T04:39:41;8.70;99.90
9776;DHT22;4927;52.472;13.108;2023-04-01T04:40:43;8.70;99.90
9776;DHT22;4927;52.472;13.108;2023-04-01T04:41:44;8.70;99.90
9776;DHT22;4927;52.472;13.108;2023-04-01T04:42:47;8.70;99.90
9776;DHT22;4927;52.472;13.108;2023-04-01T04:43:51;8.70;99.90
9776;DHT22;4927;52.472;13.108;2023-04-01T04:44:53;8.70;99.90
9776;DHT22;4927;52.472;13.108;2023-04-01T04:45:54;8.70;99.90
9776;DHT22;4927;52.472;13.108;2023-04-01T04:47:04;8.70;99.90
9776;DHT22;4927;52.472;13.108;2023-04-01T04:48:07;8.70;99.90
9776;DHT22;4927;52.472;13.108;2023-04-01T04:49:09;8.70;99.90
9776;DHT22;4927;52.472;13.108;2023-04-01T04:50:10;8.70;99.90
9776;DHT22;4927;52.472;13.108;2023-04-01T04:51:13;8.70;99.90
9776;DHT22;4927;52.472;13.108;2023-04-01T04:52:15;8.70;99.90
9776;DHT22;4927;52.472;13.108;2023-04-01T04:53:18;8.70;99.90
9776;DHT22;4927;52.472;13.108;2023-04-01T04:54:19;8.70;99.90
9776;DHT22;4927;52.472;13.108;2023-04-01T04:55:20;8.70;99.90
9776;DHT22;4927;52.472;13.108;2023-04-01T04:56:22;8.70;99.90
9776;DHT22;4927;52.472;13.108;2023-04-01T04:57:24;8.70;99.90
9776;DHT22;4927;52.472;13.108;2023-04-01T04:58:25;8.70;99.90
9776;DHT22;4927;52.472;13.108;2023-04-01T04:59:28;8.70;99.90
9776;DHT22;4927;52.472;13.108;2023-04-01T05:00:30;8.70;99.90
9776;DHT22;4927;52.472;13.108;2023-04-01T05:01:32;8.70;99.90
9776;DHT22;4927;52.472;13.108;2023-04-01T05:02:35;8.70;99.90
9776;DHT22;4927;52.472;13.108;2023-04-01T05:03:37;8.70;99.90
9776;DHT22;4927;52.472;13.108;2023-04-01T05:04:39;8.70;99.90
9776;DHT22;4927;52.472;13.108;2023-04-01T05:05:47;8.70;99.90
9776;DHT22;4927;52.472;13.108;2023-04-01T05:06:42;8.70;99.90
9776;DHT22;4927;52.472;13.108;2023-04-01T05:07:44;8.60;99.90
9776;DHT22;4927;52.472;13.108;2023-04-01T05:08:46;8.70;99.90
9776;DHT22;4927;52.472;13.108;2023-04-01T05:09:48;8.70;99.90
9776;DHT22;4927;52.472;13.108;2023-04-01T05:10:49;8.70;99.90
9776;DHT22;4927;52.472;13.108;2023-04-01T05:11:51;8.70;99.90
9776;DHT22;4927;52.472;13.108;2023-04-01T05:12:52;8.70;99.90
9776;DHT22;4927;52.472;13.108;2023-04-01T05:13:54;8.70;99.90
9776;DHT22;4927;52.472;13.108;2023-04-01T05:14:56;8.70;99.90
9776;DHT22;4927;52.472;13.108;2023-04-01T05:15:57;8.70;99.90
9776;DHT22;4927;52.472;13.108;2023-04-01T05:16:59;8.70;99.90
9776;DHT22;4927;52.472;13.108;2023-04-01T05:18:01;8.70;99.90
9776;DHT22;4927;52.472;13.108;2023-04-01T05:19:02;8.70;99.90
9776;DHT22;4927;52.472;13.108;2023-04-01T05:20:05;8.70;99.90
9776;DHT22;4927;52.472;13.108;2023-04-01T05:21:09;8.70;99.90
9776;DHT22;4927;52.472;13.108;2023-04-01T05:22:10;8.70;99.90
9776;DHT22;4927;52.472;13.108;2023-04-01T05:23:11;8.70;99.90
9776;DHT22;4927;52.472;13.108;2023-04-01T05:24:13;8.50;99.90
9776;DHT22;4927;52.472;13.108;2023-04-01T05:25:15;8.70;99.90
9776;DHT22;4927;52.472;13.108;2023-04-01T05:26:17;8.70;99.90
9776;DHT22;4927;52.472;13.108;2023-04-01T05:27:19;8.70;99.90
9776;DHT22;4927;52.472;13.108;2023-04-01T05:28:21;8.70;99.90
9776;DHT22;4927;52.472;13.108;2023-04-01T05:29:24;8.70;99.90
9776;DHT22;4927;52.472;13.108;2023-04-01T05:30:25;8.70;99.90
9776;DHT22;4927;52.472;13.108;2023-04-01T05:31:28;8.80;99.90
9776;DHT22;4927;52.472;13.108;2023-04-01T05:32:30;8.70;99.90
9776;DHT22;4927;52.472;13.108;2023-04-01T05:33:31;8.70;99.90
9776;DHT22;4927;52.472;13.108;2023-04-01T05:34:33;8.80;99.90
9776;DHT22;4927;52.472;13.108;2023-04-01T05:35:34;8.80;99.90
9776;DHT22;4927;52.472;13.108;2023-04-01T05:36:36;8.80;99.90
9776;DHT22;4927;52.472;13.108;2023-04-01T05:37:38;8.80;99.90
9776;DHT22;4927;52.472;13.108;2023-04-01T05:38:40;8.80;99.90
9776;DHT22;4927;52.472;13.108;2023-04-01T05:39:42;8.80;99.90
9776;DHT22;4927;52.472;13.108;2023-04-01T05:40:44;8.90;99.90
9776;DHT22;4927;52.472;13.108;2023-04-01T05:41:46;8.90;99.90
9776;DHT22;4927;52.472;13.108;2023-04-01T05:42:48;8.90;99.90
9776;DHT22;4927;52.472;13.108;2023-04-01T05:43:49;8.90;99.90
9776;DHT22;4927;52.472;13.108;2023-04-01T05:44:51;8.90;99.90
9776;DHT22;4927;52.472;13.108;2023-04-01T05:45:54;8.90;99.90
9776;DHT22;4927;52.472;13.108;2023-04-01T05:46:56;9.00;99.90
9776;DHT22;4927;52.472;13.108;2023-04-01T05:47:59;9.00;99.90
9776;DHT22;4927;52.472;13.108;2023-04-01T05:49:01;9.00;99.90
9776;DHT22;4927;52.472;13.108;2023-04-01T05:50:04;9.10;99.90
9776;DHT22;4927;52.472;13.108;2023-04-01T05:51:06;9.00;99.90
9776;DHT22;4927;52.472;13.108;2023-04-01T05:52:07;9.00;99.90
9776;DHT22;4927;52.472;13.108;2023-04-01T05:53:10;9.10;99.90
9776;DHT22;4927;52.472;13.108;2023-04-01T05:54:12;9.10;99.90
9776;DHT22;4927;52.472;13.108;2023-04-01T05:55:13;9.10;99.90
9776;DHT22;4927;52.472;13.108;2023-04-01T05:56:15;9.10;99.90
9776;DHT22;4927;52.472;13.108;2023-04-01T05:57:19;9.20;99.90
9776;DHT22;4927;52.472;13.108;2023-04-01T05:58:20;9.20;99.90
9776;DHT22;4927;52.472;13.108;2023-04-01T05:59:24;9.20;99.90
9776;DHT22;4927;52.472;13.108;2023-04-01T06:00:26;9.20;99.90
9776;DHT22;4927;52.472;13.108;2023-04-01T06:01:28;9.30;99.90
9776;DHT22;4927;52.472;13.108;2023-04-01T06:02:30;9.40;99.90
9776;DHT22;4927;52.472;13.108;2023-04-01T06:03:32;9.40;99.90
9776;DHT22;4927;52.472;13.108;2023-04-01T06:04:35;9.40;99.90
9776;DHT22;4927;52.472;13.108;2023-04-01T06:05:39;9.40;99.90
9776;DHT22;4927;52.472;13.108;2023-04-01T06:06:40;9.50;99.90
9776;DHT22;4927;52.472;13.108;2023-04-01T06:07:42;9.50;99.90
9776;DHT22;4927;52.472;13.108;2023-04-01T06:08:48;9.50;99.90
9776;DHT22;4927;52.472;13.108;2023-04-01T06:10:09;9.60;99.90
9776;DHT22;4927;52.472;13.108;2023-04-01T06:11:22;9.60;99.90
9776;DHT22;4927;52.472;13.108;2023-04-01T06:12:34;9.70;99.90
9776;DHT22;4927;52.472;13.108;2023-04-01T06:14:28;9.70;99.90
9776;DHT22;4927;52.472;13.108;2023-04-01T06:15:36;9.80;99.90
9776;DHT22;4927;52.472;13.108;2023-04-01T06:16:42;9.80;99.90
9776;DHT22;4927;52.472;13.108;2023-04-01T06:17:45;9.90;99.90
9776;DHT22;4927;52.472;13.108;2023-04-01T06:18:59;9.90;99.90
9776;DHT22;4927;52.472;13.108;2023-04-01T06:20:24;10.00;99.90
9776;DHT22;4927;52.472;13.108;2023-04-01T06:23:28;10.10;99.90
9776;DHT22;4927;52.472;13.108;2023-04-01T06:24:55;10.10;99.90
9776;DHT22;4927;52.472;13.108;2023-04-01T06:26:14;10.10;99.90
9776;DHT22;4927;52.472;13.108;2023-04-01T06:27:32;10.20;99.90
9776;DHT22;4927;52.472;13.108;2023-04-01T06:29:41;10.30;99.90
9776;DHT22;4927;52.472;13.108;2023-04-01T06:30:40;10.30;99.90
9776;DHT22;4927;52.472;13.108;2023-04-01T06:33:53;10.30;99.90
9776;DHT22;4927;52.472;13.108;2023-04-01T06:35:22;10.40;99.90
9776;DHT22;4927;52.472;13.108;2023-04-01T06:36:49;10.40;99.90
9776;DHT22;4927;52.472;13.108;2023-04-01T06:37:59;10.50;99.90
9776;DHT22;4927;52.472;13.108;2023-04-01T06:39:19;10.50;99.90
9776;DHT22;4927;52.472;13.108;2023-04-01T06:40:35;10.50;99.90
9776;DHT22;4927;52.472;13.108;2023-04-01T06:41:51;10.60;99.90
9776;DHT22;4927;52.472;13.108;2023-04-01T06:43:05;10.60;99.90
9776;DHT22;4927;52.472;13.108;2023-04-01T06:44:33;10.70;99.90
9776;DHT22;4927;52.472;13.108;2023-04-01T06:45:54;10.70;99.90
9776;DHT22;4927;52.472;13.108;2023-04-01T06:46:58;10.80;99.90
9776;DHT22;4927;52.472;13.108;2023-04-01T06:48:30;10.80;99.90
9776;DHT22;4927;52.472;13.108;2023-04-01T06:51:07;10.90;99.90
9776;DHT22;4927;52.472;13.108;2023-04-01T06:51:36;10.90;99.90
9776;DHT22;4927;52.472;13.108;2023-04-01T06:52:42;10.90;99.90
9776;DHT22;4927;52.472;13.108;2023-04-01T06:53:49;10.90;99.90
9776;DHT22;4927;52.472;13.108;2023-04-01T06:55:01;10.90;99.90
9776;DHT22;4927;52.472;13.108;2023-04-01T06:56:04;10.90;99.90
9776;DHT22;4927;52.472;13.108;2023-04-01T06:57:30;10.90;99.90
9776;DHT22;4927;52.472;13.108;2023-04-01T06:58:37;10.90;99.90
9776;DHT22;4927;52.472;13.108;2023-04-01T06:59:38;10.90;99.90
9776;DHT22;4927;52.472;13.108;2023-04-01T07:00:40;10.90;99.90
9776;DHT22;4927;52.472;13.108;2023-04-01T07:01:45;10.90;99.90
9776;DHT22;4927;52.472;13.108;2023-04-01T07:02:50;10.90;99.90
9776;DHT22;4927;52.472;13.108;2023-04-01T07:04:01;10.90;99.90
9776;DHT22;4927;52.472;13.108;2023-04-01T07:05:02;10.90;99.90
9776;DHT22;4927;52.472;13.108;2023-04-01T07:06:06;10.90;99.90
9776;DHT22;4927;52.472;13.108;2023-04-01T07:07:35;10.90;99.90
9776;DHT22;4927;52.472;13.108;2023-04-01T07:08:37;10.90;99.90